Time;durP1;ratioP1;P1;durP2;ratioP2;P2;SDS_P1;SDS_P2;PMS_P1;PMS_P2;Temp;Humidity;BMP_temperature;BMP_pressure;BME280_temperature;BME280_humidity;BME280_pressure;Samples;Min_cycle;Max_cycle;Signal;HPM_P1;HPM_P2
2023/01/14 00:01:25;;;;;;;;;;;;;;;;;;5038058;28;19964;-62
2023/01/14 00:03:54;;;;;;;;;;;;;;;;;;5046616;28;19944;-59
2023/01/14 00:06:22;;;;;;;;;;;;;;;;;;5044750;28;20373;-61
2023/01/14 00:08:50;;;;;;;;;;;;;;;;;;5050212;28;19931;-61
2023/01/14 00:11:18;;;;;;;;;;;;;;;;;;5039021;28;19931;-62
2023/01/14 00:13:46;;;;;;;;;;;;;;;;;;5049353;28;19935;-61
2023/01/14 00:16:15;;;;;;;;;;;;;;;;;;5045825;28;19966;-62
2023/01/14 00:18:43;;;;;;;;;;;;;;;;;;5042308;28;19920;-62
2023/01/14 00:21:11;;;;;;;;;;;;;;;;;;5044533;28;19944;-61
2023/01/14 00:23:39;;;;;;;;;;;;;;;;;;5050240;28;19936;-62
2023/01/14 00:26:07;;;;;;;;;;;;;;;;;;5046266;28;20834;-61
2023/01/14 00:28:35;;;;;;;;;;;;;;;;;;5044082;28;20391;-62
2023/01/14 00:31:03;;;;;;;;;;;;;;;;;;5038932;28;20373;-62
2023/01/14 00:33:31;;;;;;;;;;;;;;;;;;5048025;28;19975;-62
2023/01/14 00:35:59;;;;;;;;;;;;;;;;;;5044761;28;20008;-61
2023/01/14 00:38:27;;;;;;;;;;;;;;;;;;5048237;28;19932;-62
2023/01/14 00:40:55;;;;;;;;;;;;;;;;;;5048951;28;19925;-62
2023/01/14 00:43:23;;;;;;;;;;;;;;;;;;5047843;28;19921;-61
2023/01/14 00:45:52;;;;;;;;;;;;;;;;;;5048793;28;19920;-62
2023/01/14 00:48:20;;;;;;;;;;;;;;;;;;5038572;28;20354;-62
2023/01/14 00:50:48;;;;;;;;;;;;;;;;;;5036789;28;20266;-61
2023/01/14 00:53:16;;;;;;;;;;;;;;;;;;5046392;28;20315;-62
2023/01/14 00:55:44;;;;;;;;;;;;;;;;;;5040284;28;19936;-62
2023/01/14 00:58:12;;;;;;;;;;;;;;;;;;5044554;28;19921;-62
2023/01/14 01:00:40;;;;;;;;;;;;;;;;;;5044653;28;19967;-61
2023/01/14 01:03:08;;;;;;;;;;;;;;;;;;5045741;28;20010;-61
2023/01/14 01:05:36;;;;;;;;;;;;;;;;;;5047788;28;19994;-62
2023/01/14 01:08:04;;;;;;;;;;;;;;;;;;5045581;28;19929;-62
2023/01/14 01:10:32;;;;;;;;;;;;;;;;;;5047234;28;19925;-63
2023/01/14 01:13:00;;;;;;;;;;;;;;;;;;5045337;28;19921;-62
2023/01/14 01:15:28;;;;;;;;;;;;;;;;;;5049056;28;19928;-61
2023/01/14 01:17:56;;;;;;;;;;;;;;;;;;5048380;28;20338;-61
2023/01/14 01:20:25;;;;;;;;;;;;;;;;;;5037159;28;20302;-62
2023/01/14 01:22:53;;;;;;;;;;;;;;;;;;5039642;28;19943;-62
2023/01/14 01:25:21;;;;;;;;;;;;;;;;;;5049096;28;19925;-62
2023/01/14 01:27:49;;;;;;;;;;;;;;;;;;5047539;28;19928;-62
2023/01/14 01:30:17;;;;;;;;;;;;;;;;;;5038053;28;20266;-62
2023/01/14 01:32:45;;;;;;;;;;;;;;;;;;5048056;28;19928;-62
2023/01/14 01:35:13;;;;;;;;;;;;;;;;;;5047820;28;19920;-60
2023/01/14 01:37:41;;;;;;;;;;;;;;;;;;5042247;28;19920;-61
2023/01/14 01:40:09;;;;;;;;;;;;;;;;;;5050131;28;19925;-62
2023/01/14 01:42:54;;;;;;;;;;;;;;;;;;5052325;28;19925;-61
2023/01/14 01:45:22;;;;;;;;;;;;;;;;;;5041022;28;19921;-61
2023/01/14 01:47:50;;;;;;;;;;;;;;;;;;5050526;28;19939;-62
2023/01/14 01:50:18;;;;;;;;;;;;;;;;;;5050050;28;19935;-62
2023/01/14 01:52:46;;;;;;;;;;;;;;;;;;5048026;28;20378;-62
2023/01/14 01:55:15;;;;;;;;;;;;;;;;;;5039395;28;19924;-61
2023/01/14 01:57:43;;;;;;;;;;;;;;;;;;5038757;28;20066;-61
2023/01/14 02:00:11;;;;;;;;;;;;;;;;;;5045799;28;19925;-61
2023/01/14 02:02:39;;;;;;;;;;;;;;;;;;5055155;28;20373;-62
2023/01/14 02:05:08;;;;;;;;;;;;;;;;;;5051050;28;19924;-62
2023/01/14 02:07:36;;;;;;;;;;;;;;;;;;5045234;28;19927;-62
2023/01/14 02:10:04;;;;;;;;;;;;;;;;;;5051276;28;19927;-61
2023/01/14 02:12:32;;;;;;;;;;;;;;;;;;5051322;28;20434;-63
2023/01/14 02:15:00;;;;;;;;;;;;;;;;;;5052148;28;20042;-62
2023/01/14 02:17:28;;;;;;;;;;;;;;;;;;5049210;28;19947;-61
2023/01/14 02:19:56;;;;;;;;;;;;;;;;;;5037858;28;20408;-64
2023/01/14 02:22:24;;;;;;;;;;;;;;;;;;5045098;28;20034;-62
2023/01/14 02:24:52;;;;;;;;;;;;;;;;;;5049165;28;19929;-61
2023/01/14 02:27:20;;;;;;;;;;;;;;;;;;5050049;28;19946;-62
2023/01/14 02:29:48;;;;;;;;;;;;;;;;;;5052100;28;20297;-62
2023/01/14 02:32:17;;;;;;;;;;;;;;;;;;5047227;28;19924;-62
2023/01/14 02:34:45;;;;;;;;;;;;;;;;;;5052076;28;19921;-61
2023/01/14 02:37:13;;;;;;;;;;;;;;;;;;5049177;28;19928;-62
2023/01/14 02:39:41;;;;;;;;;;;;;;;;;;5045998;28;20246;-61
2023/01/14 02:44:55;;;;;;;;;;;;;;;;;;5042792;28;20390;-61
2023/01/14 02:47:23;;;;;;;;;;;;;;;;;;5047543;28;20353;-61
2023/01/14 02:49:51;;;;;;;;;;;;;;;;;;5050868;28;19940;-61
2023/01/14 02:52:19;;;;;;;;;;;;;;;;;;5046701;28;19928;-61
2023/01/14 02:54:47;;;;;;;;;;;;;;;;;;5036133;28;19947;-62
2023/01/14 02:57:15;;;;;;;;;;;;;;;;;;5040392;28;19921;-61
2023/01/14 02:59:43;;;;;;;;;;;;;;;;;;5050617;28;20293;-61
2023/01/14 03:02:12;;;;;;;;;;;;;;;;;;5051216;28;19924;-61
2023/01/14 03:04:40;;;;;;;;;;;;;;;;;;5050339;28;19921;-61
2023/01/14 03:07:08;;;;;;;;;;;;;;;;;;5050683;28;19925;-62
2023/01/14 03:09:36;;;;;;;;;;;;;;;;;;5047184;28;20108;-61
2023/01/14 03:12:04;;;;;;;;;;;;;;;;;;5047635;28;19924;-61
2023/01/14 03:14:32;;;;;;;;;;;;;;;;;;5041733;28;19927;-63
2023/01/14 03:17:00;;;;;;;;;;;;;;;;;;5047337;28;19924;-62
2023/01/14 03:19:29;;;;;;;;;;;;;;;;;;5043427;28;19931;-62
2023/01/14 03:21:57;;;;;;;;;;;;;;;;;;5048927;28;19928;-61
2023/01/14 03:24:25;;;;;;;;;;;;;;;;;;5044100;28;19943;-61
2023/01/14 03:26:53;;;;;;;;;;;;;;;;;;5041097;28;19920;-61
2023/01/14 03:29:21;;;;;;;;;;;;;;;;;;5038557;28;19921;-61
2023/01/14 03:31:49;;;;;;;;;;;;;;;;;;5045695;28;19928;-62
2023/01/14 03:34:17;;;;;;;;;;;;;;;;;;5049768;28;19924;-61
2023/01/14 03:36:47;;;;;;;;;;;;;;;;;;5043174;28;19927;-61
2023/01/14 03:39:15;;;;;;;;;;;;;;;;;;5042219;28;20095;-61
2023/01/14 03:44:29;;;;;;;;;;;;;;;;;;5050917;28;19925;-61
2023/01/14 03:46:57;;;;;;;;;;;;;;;;;;5042858;28;19921;-62
2023/01/14 03:49:25;;;;;;;;;;;;;;;;;;5050470;28;19921;-63
2023/01/14 03:51:53;;;;;;;;;;;;;;;;;;5047896;28;19920;-61
2023/01/14 03:54:21;;;;;;;;;;;;;;;;;;5044423;28;20297;-62
2023/01/14 03:56:51;;;;;;;;;;;;;;;;;;5039960;28;20449;-62
2023/01/14 03:59:19;;;;;;;;;;;;;;;;;;5045191;28;19925;-62
2023/01/14 04:01:47;;;;;;;;;;;;;;;;;;5048117;28;19925;-61
2023/01/14 04:04:15;;;;;;;;;;;;;;;;;;5048187;28;20617;-62
2023/01/14 04:06:43;;;;;;;;;;;;;;;;;;5046591;28;20007;-62
2023/01/14 04:09:11;;;;;;;;;;;;;;;;;;5041347;28;19928;-61
2023/01/14 04:11:39;;;;;;;;;;;;;;;;;;5043281;28;19920;-61
2023/01/14 04:16:53;;;;;;;;;;;;;;;;;;5045738;28;19959;-60
2023/01/14 04:19:21;;;;;;;;;;;;;;;;;;5047206;28;19928;-61
2023/01/14 04:21:49;;;;;;;;;;;;;;;;;;5047816;28;20373;-62
2023/01/14 04:24:17;;;;;;;;;;;;;;;;;;5047698;28;20407;-61
2023/01/14 04:26:45;;;;;;;;;;;;;;;;;;5046224;28;19950;-62
2023/01/14 04:29:13;;;;;;;;;;;;;;;;;;5031471;28;19920;-61
2023/01/14 04:31:41;;;;;;;;;;;;;;;;;;5047348;28;20390;-62
2023/01/14 04:34:09;;;;;;;;;;;;;;;;;;5047144;28;19932;-61
2023/01/14 04:36:38;;;;;;;;;;;;;;;;;;5048923;28;19952;-61
2023/01/14 04:39:06;;;;;;;;;;;;;;;;;;5049370;28;20495;-62
2023/01/14 04:44:20;;;;;;;;;;;;;;;;;;5049700;28;19927;-62
2023/01/14 04:46:48;;;;;;;;;;;;;;;;;;5049314;28;19927;-62
2023/01/14 04:49:16;;;;;;;;;;;;;;;;;;5047805;28;20288;-61
2023/01/14 04:51:44;;;;;;;;;;;;;;;;;;5039385;28;19921;-62
2023/01/14 04:54:12;;;;;;;;;;;;;;;;;;5042012;28;20345;-62
2023/01/14 04:56:40;;;;;;;;;;;;;;;;;;5045386;28;20401;-62
2023/01/14 04:59:08;;;;;;;;;;;;;;;;;;5038641;28;19931;-62
2023/01/14 05:01:36;;;;;;;;;;;;;;;;;;5047312;28;19928;-61
2023/01/14 05:04:04;;;;;;;;;;;;;;;;;;5045757;28;19960;-62
2023/01/14 05:06:32;;;;;;;;;;;;;;;;;;5041302;28;20001;-62
2023/01/14 05:09:01;;;;;;;;;;;;;;;;;;5040543;28;19952;-62
2023/01/14 05:11:29;;;;;;;;;;;;;;;;;;5037452;28;20324;-62
2023/01/14 05:13:57;;;;;;;;;;;;;;;;;;5041937;28;19927;-60
2023/01/14 05:16:26;;;;;;;;;;;;;;;;;;5047702;28;19928;-62
2023/01/14 05:18:54;;;;;;;;;;;;;;;;;;5040661;28;19925;-62
2023/01/14 05:21:24;;;;;;;;;;;;;;;;;;5053804;28;19921;-62
2023/01/14 05:23:52;;;;;;;;;;;;;;;;;;5052020;28;19924;-64
2023/01/14 05:26:20;;;;;;;;;;;;;;;;;;5050896;28;19925;-62
2023/01/14 05:28:48;;;;;;;;;;;;;;;;;;5049218;28;19924;-62
2023/01/14 05:31:16;;;;;;;;;;;;;;;;;;5046872;28;20334;-61
2023/01/14 05:33:44;;;;;;;;;;;;;;;;;;5051648;28;20447;-61
2023/01/14 05:36:12;;;;;;;;;;;;;;;;;;5050141;28;20292;-62
2023/01/14 05:38:40;;;;;;;;;;;;;;;;;;5051393;28;19920;-61
2023/01/14 05:41:08;;;;;;;;;;;;;;;;;;5046599;28;19928;-61
2023/01/14 05:46:22;;;;;;;;;;;;;;;;;;5042368;28;19946;-61
2023/01/14 05:48:50;;;;;;;;;;;;;;;;;;5053069;28;19932;-62
2023/01/14 05:51:18;;;;;;;;;;;;;;;;;;5051622;28;19931;-63
2023/01/14 05:53:46;;;;;;;;;;;;;;;;;;5048725;28;19921;-62
2023/01/14 05:56:14;;;;;;;;;;;;;;;;;;5038453;28;19933;-62
2023/01/14 05:58:42;;;;;;;;;;;;;;;;;;5048434;28;19925;-62
2023/01/14 06:06:43;;;;;;;;;;;;;;;;;;5040311;28;20289;-62
2023/01/14 06:09:11;;;;;;;;;;;;;;;;;;5042501;28;19971;-62
2023/01/14 06:11:41;;;;;;;;;;;;;;;;;;5038155;28;20325;-62
2023/01/14 06:14:09;;;;;;;;;;;;;;;;;;5032533;28;19925;-63
2023/01/14 06:16:39;;;;;;;;;;;;;;;;;;5047785;28;19925;-62
2023/01/14 06:19:07;;;;;;;;;;;;;;;;;;5044200;28;19931;-63
2023/01/14 06:21:36;;;;;;;;;;;;;;;;;;5048875;28;19928;-62
2023/01/14 06:24:04;;;;;;;;;;;;;;;;;;5043694;28;19925;-62
2023/01/14 06:26:32;;;;;;;;;;;;;;;;;;5047307;28;19924;-62
2023/01/14 06:29:00;;;;;;;;;;;;;;;;;;5045275;28;19928;-62
2023/01/14 06:31:28;;;;;;;;;;;;;;;;;;5046069;28;19970;-63
2023/01/14 06:33:56;;;;;;;;;;;;;;;;;;5045802;28;19925;-62
2023/01/14 06:36:24;;;;;;;;;;;;;;;;;;5045953;28;20393;-62
2023/01/14 06:38:52;;;;;;;;;;;;;;;;;;5045917;28;20332;-63
2023/01/14 06:41:21;;;;;;;;;;;;;;;;;;5039949;28;19924;-63
2023/01/14 06:43:49;;;;;;;;;;;;;;;;;;5048810;28;19924;-65
2023/01/14 06:46:17;;;;;;;;;;;;;;;;;;5043317;28;19928;-62
2023/01/14 06:48:45;;;;;;;;;;;;;;;;;;5031306;28;19976;-62
2023/01/14 06:51:13;;;;;;;;;;;;;;;;;;5045940;28;19924;-62
2023/01/14 06:53:41;;;;;;;;;;;;;;;;;;5046439;28;20008;-62
2023/01/14 06:56:09;;;;;;;;;;;;;;;;;;5033939;28;19925;-63
2023/01/14 06:58:38;;;;;;;;;;;;;;;;;;5048574;28;19931;-62
2023/01/14 07:01:06;;;;;;;;;;;;;;;;;;5049973;28;19924;-62
2023/01/14 07:03:34;;;;;;;;;;;;;;;;;;5046642;28;19929;-62
2023/01/14 07:06:03;;;;;;;;;;;;;;;;;;5043617;28;20312;-63
2023/01/14 07:08:31;;;;;;;;;;;;;;;;;;5047642;28;19955;-62
2023/01/14 07:10:59;;;;;;;;;;;;;;;;;;5051288;28;20022;-62
2023/01/14 07:13:27;;;;;;;;;;;;;;;;;;5051329;28;19974;-62
2023/01/14 07:15:57;;;;;;;;;;;;;;;;;;5038563;28;19921;-62
2023/01/14 07:18:25;;;;;;;;;;;;;;;;;;5046007;28;20361;-62
2023/01/14 07:20:54;;;;;;;;;;;;;;;;;;5039505;28;20015;-62
2023/01/14 07:23:22;;;;;;;;;;;;;;;;;;5053888;28;19936;-63
2023/01/14 07:25:55;;;;;;;;;;;;;;;;;;5042591;28;19925;-62
2023/01/14 07:28:23;;;;;;;;;;;;;;;;;;5038366;28;19929;-62
2023/01/14 07:30:52;;;;;;;;;;;;;;;;;;5044296;28;19925;-62
2023/01/14 07:33:21;;;;;;;;;;;;;;;;;;5046658;28;19921;-63
2023/01/14 07:35:51;;;;;;;;;;;;;;;;;;5046621;28;20286;-62
2023/01/14 07:38:19;;;;;;;;;;;;;;;;;;5051109;28;20012;-63
2023/01/14 07:40:47;;;;;;;;;;;;;;;;;;5040774;28;20035;-62
2023/01/14 07:43:15;;;;;;;;;;;;;;;;;;5040278;28;19940;-62
2023/01/14 07:45:43;;;;;;;;;;;;;;;;;;5039701;28;19927;-63
2023/01/14 07:48:12;;;;;;;;;;;;;;;;;;5045293;28;20007;-62
2023/01/14 07:50:40;;;;;;;;;;;;;;;;;;5039109;28;19956;-62
2023/01/14 07:53:08;;;;;;;;;;;;;;;;;;5042812;28;20848;-62
2023/01/14 07:55:36;;;;;;;;;;;;;;;;;;5043977;28;20271;-63
2023/01/14 07:58:04;;;;;;;;;;;;;;;;;;5035639;28;19929;-64
2023/01/14 08:00:32;;;;;;;;;;;;;;;;;;5040490;28;19925;-63
2023/01/14 08:03:00;;;;;;;;;;;;;;;;;;5039541;28;19924;-63
2023/01/14 08:05:28;;;;;;;;;;;;;;;;;;5046895;28;20364;-62
2023/01/14 08:07:57;;;;;;;;;;;;;;;;;;5038193;28;19994;-62
2023/01/14 08:10:25;;;;;;;;;;;;;;;;;;5043149;28;19939;-62
2023/01/14 08:12:53;;;;;;;;;;;;;;;;;;5046255;28;19924;-62
2023/01/14 08:15:21;;;;;;;;;;;;;;;;;;5033252;28;19932;-63
2023/01/14 08:17:49;;;;;;;;;;;;;;;;;;5043175;28;19921;-63
2023/01/14 08:20:22;;;;;;;;;;;;;;;;;;5043697;28;19925;-63
2023/01/14 08:22:50;;;;;;;;;;;;;;;;;;5036122;28;20373;-63
2023/01/14 08:25:18;;;;;;;;;;;;;;;;;;5042377;28;19937;-63
2023/01/14 08:27:46;;;;;;;;;;;;;;;;;;5035699;28;20011;-64
2023/01/14 08:30:14;;;;;;;;;;;;;;;;;;5039684;28;19928;-64
2023/01/14 08:32:42;;;;;;;;;;;;;;;;;;5036891;28;20297;-64
2023/01/14 08:35:10;;;;;;;;;;;;;;;;;;5035437;28;19995;-64
2023/01/14 08:37:40;;;;;;;;;;;;;;;;;;5050412;28;20033;-64
2023/01/14 08:40:08;;;;;;;;;;;;;;;;;;5048226;28;19924;-65
2023/01/14 08:42:36;;;;;;;;;;;;;;;;;;5046693;28;19931;-64
2023/01/14 08:45:04;;;;;;;;;;;;;;;;;;5041920;28;20397;-63
2023/01/14 08:47:32;;;;;;;;;;;;;;;;;;5043371;28;19921;-64
2023/01/14 08:50:00;;;;;;;;;;;;;;;;;;5049892;28;20027;-63
2023/01/14 08:52:28;;;;;;;;;;;;;;;;;;5047644;28;20397;-63
2023/01/14 08:54:56;;;;;;;;;;;;;;;;;;5039925;28;19925;-64
2023/01/14 08:57:24;;;;;;;;;;;;;;;;;;5037281;28;19927;-64
2023/01/14 08:59:52;;;;;;;;;;;;;;;;;;5044685;28;19927;-64
2023/01/14 09:02:21;;;;;;;;;;;;;;;;;;5048176;28;19921;-64
2023/01/14 09:04:49;;;;;;;;;;;;;;;;;;5043769;28;19925;-64
2023/01/14 09:18:12;;;;;;;;;;;;;;;;;;5041619;28;19932;-64
2023/01/14 09:20:40;;;;;;;;;;;;;;;;;;5042473;28;19947;-64
2023/01/14 09:23:08;;;;;;;;;;;;;;;;;;5036706;28;19925;-65
2023/01/14 09:25:37;;;;;;;;;;;;;;;;;;5044630;28;19931;-64
2023/01/14 09:28:05;;;;;;;;;;;;;;;;;;5045795;28;20365;-64
2023/01/14 09:30:33;;;;;;;;;;;;;;;;;;5043828;28;20003;-65
2023/01/14 09:33:04;;;;;;;;;;;;;;;;;;5036592;28;20007;-64
2023/01/14 09:35:32;;;;;;;;;;;;;;;;;;5045836;28;20016;-65
2023/01/14 09:38:00;;;;;;;;;;;;;;;;;;5046841;28;19936;-64
2023/01/14 09:40:29;;;;;;;;;;;;;;;;;;5045261;28;19925;-65
2023/01/14 09:42:57;;;;;;;;;;;;;;;;;;5047188;28;19924;-65
2023/01/14 09:45:25;;;;;;;;;;;;;;;;;;5046596;28;19927;-64
2023/01/14 09:47:53;;;;;;;;;;;;;;;;;;5045993;28;19920;-65
2023/01/14 09:50:21;;;;;;;;;;;;;;;;;;5047185;28;19972;-64
2023/01/14 09:52:50;;;;;;;;;;;;;;;;;;5044928;28;19978;-64
2023/01/14 09:55:18;;;;;;;;;;;;;;;;;;5045839;28;19924;-64
2023/01/14 09:57:46;;;;;;;;;;;;;;;;;;5042564;28;19971;-64
2023/01/14 10:00:15;;;;;;;;;;;;;;;;;;5031515;28;20007;-64
2023/01/14 10:02:43;;;;;;;;;;;;;;;;;;5045782;28;20288;-64
2023/01/14 10:05:11;;;;;;;;;;;;;;;;;;5049063;28;20180;-64
2023/01/14 10:07:39;;;;;;;;;;;;;;;;;;5050541;28;19928;-64
2023/01/14 10:10:07;;;;;;;;;;;;;;;;;;5045535;28;20378;-64
2023/01/14 10:12:36;;;;;;;;;;;;;;;;;;5043831;28;20014;-63
2023/01/14 10:15:04;;;;;;;;;;;;;;;;;;5045084;28;19962;-64
2023/01/14 10:17:33;;;;;;;;;;;;;;;;;;5035360;28;19931;-64
2023/01/14 10:20:01;;;;;;;;;;;;;;;;;;5046587;28;20348;-64
2023/01/14 10:22:29;;;;;;;;;;;;;;;;;;5046752;28;19925;-64
2023/01/14 10:24:57;;;;;;;;;;;;;;;;;;5042084;28;20425;-65
2023/01/14 10:27:25;;;;;;;;;;;;;;;;;;5038884;28;19935;-65
2023/01/14 10:29:54;;;;;;;;;;;;;;;;;;5050042;28;19921;-65
2023/01/14 10:32:22;;;;;;;;;;;;;;;;;;5048554;28;19920;-64
2023/01/14 10:34:50;;;;;;;;;;;;;;;;;;5047775;28;20019;-64
2023/01/14 10:37:18;;;;;;;;;;;;;;;;;;5046384;28;19929;-65
2023/01/14 10:39:46;;;;;;;;;;;;;;;;;;5048384;28;19924;-64
2023/01/14 10:42:14;;;;;;;;;;;;;;;;;;5043320;28;19925;-65
2023/01/14 10:44:43;;;;;;;;;;;;;;;;;;5044570;28;20812;-64
2023/01/14 10:47:11;;;;;;;;;;;;;;;;;;5047902;28;19967;-65
2023/01/14 10:49:40;;;;;;;;;;;;;;;;;;5044259;28;19921;-64
2023/01/14 10:52:08;;;;;;;;;;;;;;;;;;5048150;28;20007;-64
2023/01/14 10:54:36;;;;;;;;;;;;;;;;;;5040318;28;19921;-65
2023/01/14 10:57:04;;;;;;;;;;;;;;;;;;5047789;28;19927;-64
2023/01/14 10:59:33;;;;;;;;;;;;;;;;;;5038795;28;19955;-65
2023/01/14 11:02:02;;;;;;;;;;;;;;;;;;5043705;28;19924;-65
2023/01/14 11:04:47;;;;;;;;;;;;;;;;;;5044457;28;19925;-64
2023/01/14 11:07:15;;;;;;;;;;;;;;;;;;5040878;28;19925;-65
2023/01/14 11:09:43;;;;;;;;;;;;;;;;;;5040571;28;20373;-65
2023/01/14 11:12:11;;;;;;;;;;;;;;;;;;5045120;28;20389;-65
2023/01/14 11:14:40;;;;;;;;;;;;;;;;;;5038953;28;20427;-65
2023/01/14 11:17:08;;;;;;;;;;;;;;;;;;5052036;28;20001;-64
2023/01/14 11:19:36;;;;;;;;;;;;;;;;;;5046269;28;19921;-64
2023/01/14 11:22:04;;;;;;;;;;;;;;;;;;5044026;28;19929;-64
2023/01/14 11:24:35;;;;;;;;;;;;;;;;;;5050301;28;19931;-64
2023/01/14 11:27:03;;;;;;;;;;;;;;;;;;5046957;28;19924;-64
2023/01/14 11:29:31;;;;;;;;;;;;;;;;;;5036299;28;19929;-64
2023/01/14 11:32:00;;;;;;;;;;;;;;;;;;5041745;28;20351;-65
2023/01/14 11:34:28;;;;;;;;;;;;;;;;;;5051775;28;20379;-64
2023/01/14 11:36:56;;;;;;;;;;;;;;;;;;5042801;28;20366;-65
2023/01/14 11:39:24;;;;;;;;;;;;;;;;;;5048294;28;19958;-64
2023/01/14 11:41:52;;;;;;;;;;;;;;;;;;5047021;28;19920;-65
2023/01/14 11:44:21;;;;;;;;;;;;;;;;;;5054605;28;19924;-65
2023/01/14 11:46:50;;;;;;;;;;;;;;;;;;5045846;28;20274;-65
2023/01/14 11:49:18;;;;;;;;;;;;;;;;;;5049825;28;20658;-63
2023/01/14 11:51:46;;;;;;;;;;;;;;;;;;5037985;28;19931;-64
2023/01/14 11:54:14;;;;;;;;;;;;;;;;;;5051551;28;19924;-64
2023/01/14 11:56:42;;;;;;;;;;;;;;;;;;5048705;28;19974;-65
2023/01/14 11:59:10;;;;;;;;;;;;;;;;;;5052606;28;19920;-64
2023/01/14 12:01:39;;;;;;;;;;;;;;;;;;5050170;28;20669;-63
2023/01/14 12:04:08;;;;;;;;;;;;;;;;;;5050460;28;20011;-64
2023/01/14 12:06:36;;;;;;;;;;;;;;;;;;5047114;28;19920;-64
2023/01/14 12:09:04;;;;;;;;;;;;;;;;;;5048146;28;19968;-64
2023/01/14 12:11:32;;;;;;;;;;;;;;;;;;5050662;28;19920;-65
2023/01/14 12:16:50;;;;;;;;;;;;;;;;;;5045119;28;20367;-65
2023/01/14 12:19:18;;;;;;;;;;;;;;;;;;5035885;28;19932;-64
2023/01/14 12:21:46;;;;;;;;;;;;;;;;;;5051118;28;19928;-65
2023/01/14 12:24:14;;;;;;;;;;;;;;;;;;5047655;28;19932;-64
2023/01/14 12:26:42;;;;;;;;;;;;;;;;;;5047732;28;19943;-65
2023/01/14 12:29:11;;;;;;;;;;;;;;;;;;5047543;28;19921;-65
2023/01/14 12:31:39;;;;;;;;;;;;;;;;;;5048690;28;20110;-65
2023/01/14 12:34:07;;;;;;;;;;;;;;;;;;5048850;28;19942;-65
2023/01/14 12:36:35;;;;;;;;;;;;;;;;;;5046570;28;19931;-65
2023/01/14 12:47:20;;;;;;;;;;;;;;;;;;5045895;28;19932;-65
2023/01/14 12:49:49;;;;;;;;;;;;;;;;;;5049198;28;19924;-65
2023/01/14 12:52:17;;;;;;;;;;;;;;;;;;5051305;28;19925;-64
2023/01/14 12:54:45;;;;;;;;;;;;;;;;;;5051084;28;19924;-64
2023/01/14 12:57:13;;;;;;;;;;;;;;;;;;5046097;28;19921;-65
2023/01/14 12:59:41;;;;;;;;;;;;;;;;;;5044321;28;19928;-66
2023/01/14 13:02:09;;;;;;;;;;;;;;;;;;5050459;28;19930;-65
2023/01/14 13:04:38;;;;;;;;;;;;;;;;;;5044387;28;19921;-66
2023/01/14 13:07:06;;;;;;;;;;;;;;;;;;5049880;28;20012;-64
2023/01/14 13:09:34;;;;;;;;;;;;;;;;;;5047840;28;20281;-65
2023/01/14 13:12:02;;;;;;;;;;;;;;;;;;5047458;28;20393;-64
2023/01/14 13:14:34;;;;;;;;;;;;;;;;;;5049085;28;19947;-64
2023/01/14 13:17:02;;;;;;;;;;;;;;;;;;5046842;28;19921;-64
2023/01/14 13:19:30;;;;;;;;;;;;;;;;;;5047862;28;19943;-63
2023/01/14 13:21:58;;;;;;;;;;;;;;;;;;5042153;28;20012;-64
2023/01/14 13:24:26;;;;;;;;;;;;;;;;;;5048857;28;19927;-64
2023/01/14 13:26:55;;;;;;;;;;;;;;;;;;5045132;28;20378;-63
2023/01/14 13:29:23;;;;;;;;;;;;;;;;;;5043312;28;20266;-65
2023/01/14 13:31:52;;;;;;;;;;;;;;;;;;5047776;28;20369;-64
2023/01/14 13:34:21;;;;;;;;;;;;;;;;;;5042493;28;19921;-65
2023/01/14 13:36:49;;;;;;;;;;;;;;;;;;5065142;28;19935;-65
2023/01/14 13:39:17;;;;;;;;;;;;;;;;;;5051591;28;19921;-64
2023/01/14 13:41:45;;;;;;;;;;;;;;;;;;5053711;28;19946;-63
2023/01/14 13:44:13;;;;;;;;;;;;;;;;;;5049082;28;19928;-63
2023/01/14 13:46:41;;;;;;;;;;;;;;;;;;5053658;28;19932;-63
2023/01/14 13:49:09;;;;;;;;;;;;;;;;;;5046271;28;20438;-64
2023/01/14 13:51:38;;;;;;;;;;;;;;;;;;5058885;28;20305;-63
2023/01/14 13:54:06;;;;;;;;;;;;;;;;;;5052211;28;19924;-63
2023/01/14 13:56:45;;;;;;;;;;;;;;;;;;5051493;28;19966;-65
2023/01/14 13:59:13;;;;;;;;;;;;;;;;;;5049168;28;20293;-64
2023/01/14 14:01:41;;;;;;;;;;;;;;;;;;5047612;28;20028;-62
2023/01/14 14:04:10;;;;;;;;;;;;;;;;;;5052881;28;20361;-62
2023/01/14 14:06:38;;;;;;;;;;;;;;;;;;5052412;28;20384;-63
2023/01/14 14:09:06;;;;;;;;;;;;;;;;;;5044870;28;19978;-63
2023/01/14 14:11:34;;;;;;;;;;;;;;;;;;5053278;28;19966;-62
2023/01/14 14:14:05;;;;;;;;;;;;;;;;;;5047866;28;19932;-63
2023/01/14 14:16:33;;;;;;;;;;;;;;;;;;5050910;28;20486;-64
2023/01/14 14:19:01;;;;;;;;;;;;;;;;;;5047464;28;19995;-64
2023/01/14 14:21:29;;;;;;;;;;;;;;;;;;5047673;28;19927;-65
2023/01/14 14:23:57;;;;;;;;;;;;;;;;;;5050827;28;19925;-65
2023/01/14 14:26:25;;;;;;;;;;;;;;;;;;5049842;28;20536;-63
2023/01/14 14:28:53;;;;;;;;;;;;;;;;;;5051811;28;19938;-63
2023/01/14 14:31:22;;;;;;;;;;;;;;;;;;5054468;28;19943;-63
2023/01/14 14:33:50;;;;;;;;;;;;;;;;;;5053154;28;19975;-62
2023/01/14 14:36:18;;;;;;;;;;;;;;;;;;5044520;28;20007;-61
2023/01/14 14:38:46;;;;;;;;;;;;;;;;;;5052877;28;19928;-63
2023/01/14 14:41:15;;;;;;;;;;;;;;;;;;5044615;28;19927;-62
2023/01/14 14:43:43;;;;;;;;;;;;;;;;;;5049327;28;19936;-62
2023/01/14 14:46:11;;;;;;;;;;;;;;;;;;5052245;28;19921;-62
2023/01/14 14:48:40;;;;;;;;;;;;;;;;;;5052776;28;19925;-63
2023/01/14 14:51:08;;;;;;;;;;;;;;;;;;5051367;28;20023;-63
2023/01/14 14:53:38;;;;;;;;;;;;;;;;;;5050462;28;19924;-63
2023/01/14 14:56:06;;;;;;;;;;;;;;;;;;5040596;28;19929;-63
2023/01/14 14:58:34;;;;;;;;;;;;;;;;;;5050537;28;20015;-63
2023/01/14 15:01:02;;;;;;;;;;;;;;;;;;5048296;28;19939;-62
2023/01/14 15:03:31;;;;;;;;;;;;;;;;;;5049736;28;20448;-62
2023/01/14 15:05:59;;;;;;;;;;;;;;;;;;5043491;28;20421;-62
2023/01/14 15:08:28;;;;;;;;;;;;;;;;;;5048679;28;19925;-62
2023/01/14 15:10:56;;;;;;;;;;;;;;;;;;5051892;28;19977;-62
2023/01/14 15:13:26;;;;;;;;;;;;;;;;;;5050231;28;19925;-61
2023/01/14 15:15:54;;;;;;;;;;;;;;;;;;5042847;28;20015;-62
2023/01/14 15:18:22;;;;;;;;;;;;;;;;;;5049747;28;20011;-62
2023/01/14 15:20:51;;;;;;;;;;;;;;;;;;5050194;28;20377;-62
2023/01/14 15:23:19;;;;;;;;;;;;;;;;;;5051348;28;19925;-62
2023/01/14 15:25:47;;;;;;;;;;;;;;;;;;5038147;28;20011;-62
2023/01/14 15:28:17;;;;;;;;;;;;;;;;;;5049812;28;19943;-61
2023/01/14 15:30:46;;;;;;;;;;;;;;;;;;5041411;28;19921;-62
2023/01/14 15:33:14;;;;;;;;;;;;;;;;;;5048582;28;19976;-61
2023/01/14 15:35:42;;;;;;;;;;;;;;;;;;5044557;28;19974;-62
2023/01/14 15:38:10;;;;;;;;;;;;;;;;;;5046103;28;19920;-62
2023/01/14 15:40:39;;;;;;;;;;;;;;;;;;5052079;28;19925;-62
2023/01/14 15:43:16;;;;;;;;;;;;;;;;;;5048850;28;19932;-61
2023/01/14 15:45:44;;;;;;;;;;;;;;;;;;5041389;28;19927;-62
2023/01/14 15:48:12;;;;;;;;;;;;;;;;;;5050183;28;19931;-62
2023/01/14 15:50:40;;;;;;;;;;;;;;;;;;5037302;28;19931;-62
2023/01/14 15:53:08;;;;;;;;;;;;;;;;;;5042023;28;20274;-62
2023/01/14 15:55:36;;;;;;;;;;;;;;;;;;5048062;28;21200;-62
2023/01/14 15:58:05;;;;;;;;;;;;;;;;;;5046475;28;19928;-61
2023/01/14 16:00:33;;;;;;;;;;;;;;;;;;5047208;28;19924;-62
2023/01/14 16:03:02;;;;;;;;;;;;;;;;;;5047086;28;20276;-61
2023/01/14 16:05:31;;;;;;;;;;;;;;;;;;5047474;28;19960;-60
2023/01/14 16:08:00;;;;;;;;;;;;;;;;;;5043419;28;20000;-61
2023/01/14 16:10:29;;;;;;;;;;;;;;;;;;5043169;28;20292;-62
2023/01/14 16:12:57;;;;;;;;;;;;;;;;;;5047092;28;19947;-62
2023/01/14 16:15:25;;;;;;;;;;;;;;;;;;5042704;28;20270;-61
2023/01/14 16:17:53;;;;;;;;;;;;;;;;;;5034467;28;20353;-61
2023/01/14 16:20:21;;;;;;;;;;;;;;;;;;5039159;28;19944;-60
2023/01/14 16:22:49;;;;;;;;;;;;;;;;;;5047484;28;20349;-62
2023/01/14 16:25:17;;;;;;;;;;;;;;;;;;5033114;28;19956;-62
2023/01/14 16:27:46;;;;;;;;;;;;;;;;;;5045154;28;19921;-62
2023/01/14 16:30:14;;;;;;;;;;;;;;;;;;5044161;28;19960;-62
2023/01/14 16:33:00;;;;;;;;;;;;;;;;;;5045275;28;19921;-62
2023/01/14 16:35:28;;;;;;;;;;;;;;;;;;5043893;28;19928;-62
2023/01/14 16:37:56;;;;;;;;;;;;;;;;;;5044156;28;20279;-62
2023/01/14 16:40:24;;;;;;;;;;;;;;;;;;5038713;28;19920;-62
2023/01/14 16:42:52;;;;;;;;;;;;;;;;;;5039099;28;20164;-62
2023/01/14 16:45:20;;;;;;;;;;;;;;;;;;5035964;28;19928;-61
2023/01/14 16:47:48;;;;;;;;;;;;;;;;;;5037420;28;19931;-61
2023/01/14 16:50:17;;;;;;;;;;;;;;;;;;5048987;28;19925;-60
2023/01/14 16:52:45;;;;;;;;;;;;;;;;;;5041738;28;20027;-61
2023/01/14 16:55:13;;;;;;;;;;;;;;;;;;5049442;28;19921;-61
2023/01/14 16:57:41;;;;;;;;;;;;;;;;;;5046993;28;19983;-61
2023/01/14 17:00:09;;;;;;;;;;;;;;;;;;5037412;28;20290;-60
2023/01/14 17:02:37;;;;;;;;;;;;;;;;;;5044111;28;19928;-61
2023/01/14 17:05:05;;;;;;;;;;;;;;;;;;5039558;28;20019;-61
2023/01/14 17:07:33;;;;;;;;;;;;;;;;;;5045424;28;19928;-61
2023/01/14 17:10:01;;;;;;;;;;;;;;;;;;5046701;28;19921;-61
2023/01/14 17:12:39;;;;;;;;;;;;;;;;;;5047271;28;20003;-61
2023/01/14 17:15:07;;;;;;;;;;;;;;;;;;5048243;28;20008;-61
2023/01/14 17:17:35;;;;;;;;;;;;;;;;;;5046447;28;20396;-61
2023/01/14 17:20:03;;;;;;;;;;;;;;;;;;5039919;28;19929;-61
2023/01/14 17:22:31;;;;;;;;;;;;;;;;;;5048911;28;19943;-62
2023/01/14 17:24:59;;;;;;;;;;;;;;;;;;5042558;28;19921;-61
2023/01/14 17:27:28;;;;;;;;;;;;;;;;;;5048878;28;19927;-62
2023/01/14 17:29:56;;;;;;;;;;;;;;;;;;5044691;28;20959;-61
2023/01/14 17:32:24;;;;;;;;;;;;;;;;;;5050231;28;20028;-63
2023/01/14 17:34:52;;;;;;;;;;;;;;;;;;5045810;28;19956;-61